sensor_id;sensor_type;location;lat;lon;timestamp;P1;durP1;ratioP1;P2;durP2;ratioP2
3943;SDS011;1986;52.546;13.428;2023-04-03T00:01:10;12.37;;;12.00;;
3943;SDS011;1986;52.546;13.428;2023-04-03T00:03:37;11.90;;;11.60;;
3943;SDS011;1986;52.546;13.428;2023-04-03T00:06:06;12.40;;;12.10;;
3943;SDS011;1986;52.546;13.428;2023-04-03T00:08:35;12.13;;;11.83;;
3943;SDS011;1986;52.546;13.428;2023-04-03T00:11:03;12.67;;;11.90;;
3943;SDS011;1986;52.546;13.428;2023-04-03T00:13:31;12.57;;;12.20;;
3943;SDS011;1986;52.546;13.428;2023-04-03T00:15:59;12.10;;;11.80;;
3943;SDS011;1986;52.546;13.428;2023-04-03T00:18:26;12.83;;;12.43;;
3943;SDS011;1986;52.546;13.428;2023-04-03T00:20:53;12.20;;;11.90;;
3943;SDS011;1986;52.546;13.428;2023-04-03T00:23:21;12.20;;;11.90;;
3943;SDS011;1986;52.546;13.428;2023-04-03T00:25:51;13.40;;;12.43;;
3943;SDS011;1986;52.546;13.428;2023-04-03T00:28:19;11.90;;;11.60;;
3943;SDS011;1986;52.546;13.428;2023-04-03T00:30:46;12.60;;;12.20;;
3943;SDS011;1986;52.546;13.428;2023-04-03T00:33:15;29.53;;;12.20;;
3943;SDS011;1986;52.546;13.428;2023-04-03T00:35:42;12.17;;;11.87;;
3943;SDS011;1986;52.546;13.428;2023-04-03T00:38:09;15.93;;;12.43;;
3943;SDS011;1986;52.546;13.428;2023-04-03T00:40:37;12.03;;;11.73;;
3943;SDS011;1986;52.546;13.428;2023-04-03T00:43:11;12.70;;;12.30;;
3943;SDS011;1986;52.546;13.428;2023-04-03T00:45:40;12.40;;;12.00;;
3943;SDS011;1986;52.546;13.428;2023-04-03T00:48:10;12.00;;;11.70;;
3943;SDS011;1986;52.546;13.428;2023-04-03T00:50:41;12.40;;;12.10;;
3943;SDS011;1986;52.546;13.428;2023-04-03T00:53:10;11.90;;;11.60;;
3943;SDS011;1986;52.546;13.428;2023-04-03T00:55:40;11.83;;;11.53;;
3943;SDS011;1986;52.546;13.428;2023-04-03T00:58:11;12.00;;;11.70;;
3943;SDS011;1986;52.546;13.428;2023-04-03T01:00:42;14.90;;;13.83;;
3943;SDS011;1986;52.546;13.428;2023-04-03T01:03:15;12.30;;;12.00;;
3943;SDS011;1986;52.546;13.428;2023-04-03T01:05:42;12.20;;;11.90;;
3943;SDS011;1986;52.546;13.428;2023-04-03T01:08:09;12.00;;;11.70;;
3943;SDS011;1986;52.546;13.428;2023-04-03T01:10:38;11.80;;;11.50;;
3943;SDS011;1986;52.546;13.428;2023-04-03T01:13:19;12.83;;;12.40;;
3943;SDS011;1986;52.546;13.428;2023-04-03T01:15:50;11.90;;;11.60;;
3943;SDS011;1986;52.546;13.428;2023-04-03T01:18:17;11.90;;;11.60;;
3943;SDS011;1986;52.546;13.428;2023-04-03T01:23:50;32.17;;;12.00;;
3943;SDS011;1986;52.546;13.428;2023-04-03T01:26:23;11.37;;;11.07;;
3943;SDS011;1986;52.546;13.428;2023-04-03T01:28:54;11.37;;;11.07;;
3943;SDS011;1986;52.546;13.428;2023-04-03T01:31:22;11.67;;;11.37;;
3943;SDS011;1986;52.546;13.428;2023-04-03T01:33:54;11.73;;;11.43;;
3943;SDS011;1986;52.546;13.428;2023-04-03T01:36:22;11.80;;;11.50;;
3943;SDS011;1986;52.546;13.428;2023-04-03T01:38:51;11.80;;;11.50;;
3943;SDS011;1986;52.546;13.428;2023-04-03T01:41:18;11.47;;;11.17;;
3943;SDS011;1986;52.546;13.428;2023-04-03T01:43:46;11.53;;;11.23;;
3943;SDS011;1986;52.546;13.428;2023-04-03T01:46:13;11.60;;;11.30;;
3943;SDS011;1986;52.546;13.428;2023-04-03T01:48:41;11.70;;;11.40;;
3943;SDS011;1986;52.546;13.428;2023-04-03T01:51:09;11.90;;;11.60;;
3943;SDS011;1986;52.546;13.428;2023-04-03T01:53:36;12.60;;;12.20;;
3943;SDS011;1986;52.546;13.428;2023-04-03T01:56:05;12.00;;;11.60;;
3943;SDS011;1986;52.546;13.428;2023-04-03T01:58:33;12.97;;;12.40;;
3943;SDS011;1986;52.546;13.428;2023-04-03T02:01:00;11.60;;;11.30;;
3943;SDS011;1986;52.546;13.428;2023-04-03T02:03:28;12.17;;;11.87;;
3943;SDS011;1986;52.546;13.428;2023-04-03T02:05:57;11.60;;;11.30;;
3943;SDS011;1986;52.546;13.428;2023-04-03T02:08:25;11.90;;;11.50;;
3943;SDS011;1986;52.546;13.428;2023-04-03T02:10:53;11.80;;;11.50;;
3943;SDS011;1986;52.546;13.428;2023-04-03T02:13:20;12.00;;;11.70;;
3943;SDS011;1986;52.546;13.428;2023-04-03T02:15:47;15.17;;;12.90;;
3943;SDS011;1986;52.546;13.428;2023-04-03T02:18:14;12.20;;;11.90;;
3943;SDS011;1986;52.546;13.428;2023-04-03T02:20:41;12.00;;;11.60;;
3943;SDS011;1986;52.546;13.428;2023-04-03T02:23:08;14.70;;;12.00;;
3943;SDS011;1986;52.546;13.428;2023-04-03T02:25:37;12.70;;;12.20;;
3943;SDS011;1986;52.546;13.428;2023-04-03T02:28:04;11.80;;;11.50;;
3943;SDS011;1986;52.546;13.428;2023-04-03T02:30:31;11.60;;;11.30;;
3943;SDS011;1986;52.546;13.428;2023-04-03T02:32:58;11.90;;;11.60;;
3943;SDS011;1986;52.546;13.428;2023-04-03T02:35:26;12.47;;;12.07;;
3943;SDS011;1986;52.546;13.428;2023-04-03T02:37:52;11.80;;;11.50;;
3943;SDS011;1986;52.546;13.428;2023-04-03T02:40:20;11.60;;;11.30;;
3943;SDS011;1986;52.546;13.428;2023-04-03T02:42:48;12.07;;;11.77;;
3943;SDS011;1986;52.546;13.428;2023-04-03T02:45:15;12.00;;;11.70;;
3943;SDS011;1986;52.546;13.428;2023-04-03T02:47:45;14.03;;;12.30;;
3943;SDS011;1986;52.546;13.428;2023-04-03T02:50:16;12.00;;;11.70;;
3943;SDS011;1986;52.546;13.428;2023-04-03T02:52:46;12.47;;;12.07;;
3943;SDS011;1986;52.546;13.428;2023-04-03T02:55:13;11.60;;;11.30;;
3943;SDS011;1986;52.546;13.428;2023-04-03T02:57:42;11.60;;;11.30;;
3943;SDS011;1986;52.546;13.428;2023-04-03T03:00:11;12.00;;;11.70;;
3943;SDS011;1986;52.546;13.428;2023-04-03T03:02:39;10.80;;;10.60;;
3943;SDS011;1986;52.546;13.428;2023-04-03T03:05:12;11.30;;;11.00;;
3943;SDS011;1986;52.546;13.428;2023-04-03T03:07:41;11.40;;;11.10;;
3943;SDS011;1986;52.546;13.428;2023-04-03T03:10:09;11.87;;;11.57;;
3943;SDS011;1986;52.546;13.428;2023-04-03T03:12:36;24.73;;;11.50;;
3943;SDS011;1986;52.546;13.428;2023-04-03T03:15:03;11.07;;;10.80;;
3943;SDS011;1986;52.546;13.428;2023-04-03T03:17:32;11.93;;;11.63;;
3943;SDS011;1986;52.546;13.428;2023-04-03T03:20:01;11.27;;;10.97;;
3943;SDS011;1986;52.546;13.428;2023-04-03T03:22:29;11.63;;;11.17;;
3943;SDS011;1986;52.546;13.428;2023-04-03T03:25:08;10.83;;;10.63;;
3943;SDS011;1986;52.546;13.428;2023-04-03T03:27:35;11.53;;;11.23;;
3943;SDS011;1986;52.546;13.428;2023-04-03T03:30:03;10.60;;;10.40;;
3943;SDS011;1986;52.546;13.428;2023-04-03T03:32:35;10.70;;;10.50;;
3943;SDS011;1986;52.546;13.428;2023-04-03T03:35:04;10.70;;;10.50;;
3943;SDS011;1986;52.546;13.428;2023-04-03T03:37:32;12.60;;;12.00;;
3943;SDS011;1986;52.546;13.428;2023-04-03T03:39:59;10.73;;;10.53;;
3943;SDS011;1986;52.546;13.428;2023-04-03T03:42:27;10.60;;;10.40;;
3943;SDS011;1986;52.546;13.428;2023-04-03T03:44:55;10.60;;;10.40;;
3943;SDS011;1986;52.546;13.428;2023-04-03T03:47:22;10.90;;;10.70;;
3943;SDS011;1986;52.546;13.428;2023-04-03T03:49:54;10.77;;;10.57;;
3943;SDS011;1986;52.546;13.428;2023-04-03T03:52:30;10.73;;;10.53;;
3943;SDS011;1986;52.546;13.428;2023-04-03T03:55:00;10.60;;;10.40;;
3943;SDS011;1986;52.546;13.428;2023-04-03T03:57:30;10.77;;;10.57;;
3943;SDS011;1986;52.546;13.428;2023-04-03T03:59:57;10.73;;;10.53;;
3943;SDS011;1986;52.546;13.428;2023-04-03T04:02:24;10.60;;;10.40;;
3943;SDS011;1986;52.546;13.428;2023-04-03T04:04:55;10.20;;;10.00;;
3943;SDS011;1986;52.546;13.428;2023-04-03T04:07:23;10.03;;;9.83;;
3943;SDS011;1986;52.546;13.428;2023-04-03T04:09:52;10.00;;;9.80;;
3943;SDS011;1986;52.546;13.428;2023-04-03T04:12:19;9.90;;;9.70;;
3943;SDS011;1986;52.546;13.428;2023-04-03T04:14:47;10.03;;;9.83;;
3943;SDS011;1986;52.546;13.428;2023-04-03T04:17:14;10.37;;;10.17;;
3943;SDS011;1986;52.546;13.428;2023-04-03T04:19:41;10.37;;;10.17;;
3943;SDS011;1986;52.546;13.428;2023-04-03T04:22:09;11.00;;;10.80;;
3943;SDS011;1986;52.546;13.428;2023-04-03T04:24:39;11.83;;;11.53;;
3943;SDS011;1986;52.546;13.428;2023-04-03T04:27:06;10.50;;;10.30;;
3943;SDS011;1986;52.546;13.428;2023-04-03T04:29:33;10.90;;;10.67;;
3943;SDS011;1986;52.546;13.428;2023-04-03T04:32:06;10.50;;;10.30;;
3943;SDS011;1986;52.546;13.428;2023-04-03T04:34:33;10.17;;;9.97;;
3943;SDS011;1986;52.546;13.428;2023-04-03T04:37:02;11.67;;;10.73;;
3943;SDS011;1986;52.546;13.428;2023-04-03T04:39:30;10.10;;;9.90;;
3943;SDS011;1986;52.546;13.428;2023-04-03T04:41:57;10.20;;;10.00;;
3943;SDS011;1986;52.546;13.428;2023-04-03T04:44:28;9.77;;;9.57;;
3943;SDS011;1986;52.546;13.428;2023-04-03T04:46:55;9.70;;;9.40;;
3943;SDS011;1986;52.546;13.428;2023-04-03T04:49:22;9.57;;;9.37;;
3943;SDS011;1986;52.546;13.428;2023-04-03T04:51:49;11.70;;;11.30;;
3943;SDS011;1986;52.546;13.428;2023-04-03T04:54:16;10.00;;;9.80;;
3943;SDS011;1986;52.546;13.428;2023-04-03T04:56:45;10.20;;;10.00;;
3943;SDS011;1986;52.546;13.428;2023-04-03T04:59:12;10.13;;;9.93;;
3943;SDS011;1986;52.546;13.428;2023-04-03T05:01:45;9.93;;;9.73;;
3943;SDS011;1986;52.546;13.428;2023-04-03T05:04:14;9.90;;;9.70;;
3943;SDS011;1986;52.546;13.428;2023-04-03T05:06:42;10.50;;;10.30;;
3943;SDS011;1986;52.546;13.428;2023-04-03T05:09:09;12.27;;;11.23;;
3943;SDS011;1986;52.546;13.428;2023-04-03T05:11:37;12.60;;;11.40;;
3943;SDS011;1986;52.546;13.428;2023-04-03T05:14:06;9.70;;;9.50;;
3943;SDS011;1986;52.546;13.428;2023-04-03T05:16:35;10.37;;;10.17;;
3943;SDS011;1986;52.546;13.428;2023-04-03T05:19:21;10.63;;;10.03;;
3943;SDS011;1986;52.546;13.428;2023-04-03T05:21:48;9.23;;;9.03;;
3943;SDS011;1986;52.546;13.428;2023-04-03T05:24:16;9.50;;;9.30;;
3943;SDS011;1986;52.546;13.428;2023-04-03T05:26:43;9.80;;;9.50;;
3943;SDS011;1986;52.546;13.428;2023-04-03T05:29:12;10.63;;;9.80;;
3943;SDS011;1986;52.546;13.428;2023-04-03T05:31:41;10.00;;;9.60;;
3943;SDS011;1986;52.546;13.428;2023-04-03T05:34:12;9.60;;;9.40;;
3943;SDS011;1986;52.546;13.428;2023-04-03T05:36:39;11.17;;;10.20;;
3943;SDS011;1986;52.546;13.428;2023-04-03T05:39:22;9.37;;;9.17;;
3943;SDS011;1986;52.546;13.428;2023-04-03T05:41:50;10.63;;;10.33;;
3943;SDS011;1986;52.546;13.428;2023-04-03T05:44:19;12.90;;;11.83;;
3943;SDS011;1986;52.546;13.428;2023-04-03T05:46:46;14.07;;;13.03;;
3943;SDS011;1986;52.546;13.428;2023-04-03T05:49:13;12.10;;;11.80;;
3943;SDS011;1986;52.546;13.428;2023-04-03T05:51:41;16.73;;;15.60;;
3943;SDS011;1986;52.546;13.428;2023-04-03T05:54:17;17.17;;;15.93;;
3943;SDS011;1986;52.546;13.428;2023-04-03T05:56:48;13.80;;;13.30;;
3943;SDS011;1986;52.546;13.428;2023-04-03T05:59:15;13.30;;;12.90;;
3943;SDS011;1986;52.546;13.428;2023-04-03T06:01:43;13.40;;;13.00;;
3943;SDS011;1986;52.546;13.428;2023-04-03T06:04:11;13.50;;;13.10;;
3943;SDS011;1986;52.546;13.428;2023-04-03T06:06:45;14.60;;;14.10;;
3943;SDS011;1986;52.546;13.428;2023-04-03T06:09:14;14.20;;;13.70;;
3943;SDS011;1986;52.546;13.428;2023-04-03T06:11:42;17.03;;;15.70;;
3943;SDS011;1986;52.546;13.428;2023-04-03T06:14:10;16.17;;;15.37;;
3943;SDS011;1986;52.546;13.428;2023-04-03T06:16:45;14.23;;;13.73;;
3943;SDS011;1986;52.546;13.428;2023-04-03T06:19:13;14.90;;;14.30;;
3943;SDS011;1986;52.546;13.428;2023-04-03T06:21:42;36.73;;;16.17;;
3943;SDS011;1986;52.546;13.428;2023-04-03T06:24:09;15.10;;;14.50;;
3943;SDS011;1986;52.546;13.428;2023-04-03T06:26:42;15.17;;;14.57;;
3943;SDS011;1986;52.546;13.428;2023-04-03T06:29:10;14.90;;;14.30;;
3943;SDS011;1986;52.546;13.428;2023-04-03T06:31:37;15.97;;;15.37;;
3943;SDS011;1986;52.546;13.428;2023-04-03T06:34:06;15.30;;;14.70;;
3943;SDS011;1986;52.546;13.428;2023-04-03T06:36:33;15.30;;;14.70;;
3943;SDS011;1986;52.546;13.428;2023-04-03T06:39:03;16.10;;;15.50;;
3943;SDS011;1986;52.546;13.428;2023-04-03T06:41:33;16.30;;;15.60;;
3943;SDS011;1986;52.546;13.428;2023-04-03T06:44:05;16.37;;;15.67;;
3943;SDS011;1986;52.546;13.428;2023-04-03T06:46:36;18.47;;;17.17;;
3943;SDS011;1986;52.546;13.428;2023-04-03T06:49:05;16.00;;;15.30;;
3943;SDS011;1986;52.546;13.428;2023-04-03T06:51:34;16.60;;;15.90;;
3943;SDS011;1986;52.546;13.428;2023-04-03T06:54:04;17.00;;;16.00;;
3943;SDS011;1986;52.546;13.428;2023-04-03T06:56:40;16.10;;;15.40;;
3943;SDS011;1986;52.546;13.428;2023-04-03T06:59:07;16.50;;;15.70;;
3943;SDS011;1986;52.546;13.428;2023-04-03T07:01:40;16.73;;;15.83;;
3943;SDS011;1986;52.546;13.428;2023-04-03T07:04:13;16.90;;;16.10;;
3943;SDS011;1986;52.546;13.428;2023-04-03T07:06:43;17.00;;;15.97;;
3943;SDS011;1986;52.546;13.428;2023-04-03T07:09:10;16.13;;;15.43;;
3943;SDS011;1986;52.546;13.428;2023-04-03T07:14:07;16.60;;;15.90;;
3943;SDS011;1986;52.546;13.428;2023-04-03T07:16:37;16.57;;;15.87;;
3943;SDS011;1986;52.546;13.428;2023-04-03T07:19:05;16.70;;;15.57;;
3943;SDS011;1986;52.546;13.428;2023-04-03T07:21:36;17.03;;;16.10;;
3943;SDS011;1986;52.546;13.428;2023-04-03T07:24:23;16.37;;;15.67;;
3943;SDS011;1986;52.546;13.428;2023-04-03T07:26:55;18.23;;;17.33;;
3943;SDS011;1986;52.546;13.428;2023-04-03T07:29:36;17.77;;;16.67;;
3943;SDS011;1986;52.546;13.428;2023-04-03T07:32:05;17.47;;;16.40;;
3943;SDS011;1986;52.546;13.428;2023-04-03T07:34:32;17.30;;;16.50;;
3943;SDS011;1986;52.546;13.428;2023-04-03T07:37:07;17.20;;;16.40;;
3943;SDS011;1986;52.546;13.428;2023-04-03T07:39:37;17.30;;;16.50;;
3943;SDS011;1986;52.546;13.428;2023-04-03T07:42:07;17.93;;;16.93;;
3943;SDS011;1986;52.546;13.428;2023-04-03T07:44:34;17.20;;;16.40;;
3943;SDS011;1986;52.546;13.428;2023-04-03T07:47:02;17.50;;;16.60;;
3943;SDS011;1986;52.546;13.428;2023-04-03T07:49:29;17.40;;;16.60;;
3943;SDS011;1986;52.546;13.428;2023-04-03T07:52:10;17.70;;;16.80;;
3943;SDS011;1986;52.546;13.428;2023-04-03T07:54:43;17.77;;;16.87;;
3943;SDS011;1986;52.546;13.428;2023-04-03T07:57:25;18.30;;;17.40;;
3943;SDS011;1986;52.546;13.428;2023-04-03T07:59:53;18.00;;;17.10;;
3943;SDS011;1986;52.546;13.428;2023-04-03T08:02:20;18.30;;;17.30;;
3943;SDS011;1986;52.546;13.428;2023-04-03T08:04:48;18.27;;;17.37;;
3943;SDS011;1986;52.546;13.428;2023-04-03T08:07:21;17.40;;;16.60;;
3943;SDS011;1986;52.546;13.428;2023-04-03T08:09:51;17.50;;;16.60;;
3943;SDS011;1986;52.546;13.428;2023-04-03T08:12:18;17.00;;;16.20;;
3943;SDS011;1986;52.546;13.428;2023-04-03T08:14:48;17.70;;;16.80;;
3943;SDS011;1986;52.546;13.428;2023-04-03T08:17:15;17.67;;;16.67;;
3943;SDS011;1986;52.546;13.428;2023-04-03T08:19:44;17.83;;;16.93;;
3943;SDS011;1986;52.546;13.428;2023-04-03T08:22:14;17.80;;;16.90;;
3943;SDS011;1986;52.546;13.428;2023-04-03T08:24:42;20.00;;;18.20;;
3943;SDS011;1986;52.546;13.428;2023-04-03T08:27:13;17.33;;;16.53;;
3943;SDS011;1986;52.546;13.428;2023-04-03T08:29:56;17.67;;;16.77;;
3943;SDS011;1986;52.546;13.428;2023-04-03T08:32:23;17.30;;;16.50;;
3943;SDS011;1986;52.546;13.428;2023-04-03T08:34:51;18.27;;;17.27;;
3943;SDS011;1986;52.546;13.428;2023-04-03T08:37:31;18.40;;;17.40;;
3943;SDS011;1986;52.546;13.428;2023-04-03T08:40:03;18.10;;;17.20;;
3943;SDS011;1986;52.546;13.428;2023-04-03T08:42:36;19.33;;;17.83;;
3943;SDS011;1986;52.546;13.428;2023-04-03T08:45:19;18.57;;;17.50;;
3943;SDS011;1986;52.546;13.428;2023-04-03T08:48:05;18.70;;;17.60;;
3943;SDS011;1986;52.546;13.428;2023-04-03T08:50:53;18.47;;;17.50;;
3943;SDS011;1986;52.546;13.428;2023-04-03T08:53:40;19.40;;;17.70;;
3943;SDS011;1986;52.546;13.428;2023-04-03T08:56:13;19.03;;;18.00;;
3943;SDS011;1986;52.546;13.428;2023-04-03T08:58:45;18.30;;;17.40;;
3943;SDS011;1986;52.546;13.428;2023-04-03T09:01:33;18.10;;;17.20;;
3943;SDS011;1986;52.546;13.428;2023-04-03T09:04:18;18.20;;;17.30;;
3943;SDS011;1986;52.546;13.428;2023-04-03T09:06:57;18.30;;;17.40;;
3943;SDS011;1986;52.546;13.428;2023-04-03T09:09:45;18.93;;;18.00;;
3943;SDS011;1986;52.546;13.428;2023-04-03T09:15:41;20.57;;;19.47;;
3943;SDS011;1986;52.546;13.428;2023-04-03T09:18:27;20.60;;;19.37;;
3943;SDS011;1986;52.546;13.428;2023-04-03T09:24:15;19.67;;;18.57;;
3943;SDS011;1986;52.546;13.428;2023-04-03T09:27:03;19.60;;;18.57;;
3943;SDS011;1986;52.546;13.428;2023-04-03T09:29:49;20.03;;;18.80;;
3943;SDS011;1986;52.546;13.428;2023-04-03T09:32:21;19.50;;;18.40;;
3943;SDS011;1986;52.546;13.428;2023-04-03T09:35:17;19.90;;;18.70;;
3943;SDS011;1986;52.546;13.428;2023-04-03T09:38:15;19.50;;;18.40;;
3943;SDS011;1986;52.546;13.428;2023-04-03T09:41:05;19.43;;;18.33;;
3943;SDS011;1986;52.546;13.428;2023-04-03T09:43:55;20.83;;;19.53;;
3943;SDS011;1986;52.546;13.428;2023-04-03T09:46:40;20.63;;;19.23;;
3943;SDS011;1986;52.546;13.428;2023-04-03T09:49:26;20.33;;;19.13;;
3943;SDS011;1986;52.546;13.428;2023-04-03T09:52:00;20.40;;;19.13;;
3943;SDS011;1986;52.546;13.428;2023-04-03T09:54:51;19.77;;;18.67;;
3943;SDS011;1986;52.546;13.428;2023-04-03T09:57:19;19.80;;;18.70;;
3943;SDS011;1986;52.546;13.428;2023-04-03T09:59:56;20.20;;;18.70;;
3943;SDS011;1986;52.546;13.428;2023-04-03T10:05:33;19.43;;;18.33;;
3943;SDS011;1986;52.546;13.428;2023-04-03T10:08:20;20.27;;;19.17;;
3943;SDS011;1986;52.546;13.428;2023-04-03T10:13:51;19.67;;;18.60;;
3943;SDS011;1986;52.546;13.428;2023-04-03T10:16:23;20.10;;;18.90;;
3943;SDS011;1986;52.546;13.428;2023-04-03T10:28:37;20.50;;;19.30;;
3943;SDS011;1986;52.546;13.428;2023-04-03T10:31:14;21.00;;;19.70;;
3943;SDS011;1986;52.546;13.428;2023-04-03T10:33:52;21.20;;;20.00;;
3943;SDS011;1986;52.546;13.428;2023-04-03T10:36:41;21.30;;;20.00;;
3943;SDS011;1986;52.546;13.428;2023-04-03T10:48:55;21.50;;;20.20;;
3943;SDS011;1986;52.546;13.428;2023-04-03T10:51:40;22.10;;;20.40;;
3943;SDS011;1986;52.546;13.428;2023-04-03T10:54:26;21.90;;;20.50;;
3943;SDS011;1986;52.546;13.428;2023-04-03T10:57:16;21.67;;;20.27;;
3943;SDS011;1986;52.546;13.428;2023-04-03T10:59:56;22.03;;;20.43;;
3943;SDS011;1986;52.546;13.428;2023-04-03T11:05:34;22.30;;;20.70;;
3943;SDS011;1986;52.546;13.428;2023-04-03T11:08:23;21.27;;;19.97;;
3943;SDS011;1986;52.546;13.428;2023-04-03T11:11:05;21.70;;;20.20;;
3943;SDS011;1986;52.546;13.428;2023-04-03T11:17:23;21.07;;;19.77;;
3943;SDS011;1986;52.546;13.428;2023-04-03T11:26:16;20.90;;;19.70;;
3943;SDS011;1986;52.546;13.428;2023-04-03T11:32:45;21.73;;;20.10;;
3943;SDS011;1986;52.546;13.428;2023-04-03T11:38:55;21.50;;;20.20;;
3943;SDS011;1986;52.546;13.428;2023-04-03T11:41:28;21.60;;;20.30;;
3943;SDS011;1986;52.546;13.428;2023-04-03T11:44:01;21.83;;;20.43;;
3943;SDS011;1986;52.546;13.428;2023-04-03T11:46:51;21.80;;;20.40;;
3943;SDS011;1986;52.546;13.428;2023-04-03T11:59:37;21.97;;;20.67;;
3943;SDS011;1986;52.546;13.428;2023-04-03T12:14:03;21.30;;;20.00;;
3943;SDS011;1986;52.546;13.428;2023-04-03T12:16:45;21.90;;;20.43;;
3943;SDS011;1986;52.546;13.428;2023-04-03T12:19:31;23.43;;;20.47;;
3943;SDS011;1986;52.546;13.428;2023-04-03T12:22:16;20.70;;;19.50;;
3943;SDS011;1986;52.546;13.428;2023-04-03T12:24:46;20.70;;;19.50;;
3943;SDS011;1986;52.546;13.428;2023-04-03T12:27:33;21.30;;;20.00;;
3943;SDS011;1986;52.546;13.428;2023-04-03T12:33:23;21.50;;;20.20;;
3943;SDS011;1986;52.546;13.428;2023-04-03T12:36:12;21.97;;;20.57;;
3943;SDS011;1986;52.546;13.428;2023-04-03T12:41:46;21.97;;;20.67;;
3943;SDS011;1986;52.546;13.428;2023-04-03T12:44:41;22.30;;;21.00;;
3943;SDS011;1986;52.546;13.428;2023-04-03T12:47:35;22.20;;;20.90;;
3943;SDS011;1986;52.546;13.428;2023-04-03T12:54:15;22.23;;;21.03;;
3943;SDS011;1986;52.546;13.428;2023-04-03T13:00:35;22.20;;;21.00;;
3943;SDS011;1986;52.546;13.428;2023-04-03T13:03:30;21.67;;;20.37;;
3943;SDS011;1986;52.546;13.428;2023-04-03T13:06:06;23.07;;;21.13;;
3943;SDS011;1986;52.546;13.428;2023-04-03T13:08:55;21.30;;;20.10;;
3943;SDS011;1986;52.546;13.428;2023-04-03T13:11:34;21.50;;;20.20;;
3943;SDS011;1986;52.546;13.428;2023-04-03T13:14:12;20.90;;;19.70;;
3943;SDS011;1986;52.546;13.428;2023-04-03T13:16:52;20.60;;;19.50;;
3943;SDS011;1986;52.546;13.428;2023-04-03T13:19:27;20.90;;;19.70;;
3943;SDS011;1986;52.546;13.428;2023-04-03T13:21:56;21.00;;;19.80;;
3943;SDS011;1986;52.546;13.428;2023-04-03T13:24:27;21.00;;;19.80;;
3943;SDS011;1986;52.546;13.428;2023-04-03T13:26:56;20.90;;;19.70;;
3943;SDS011;1986;52.546;13.428;2023-04-03T13:29:24;21.30;;;20.00;;
3943;SDS011;1986;52.546;13.428;2023-04-03T13:31:58;22.00;;;20.60;;
3943;SDS011;1986;52.546;13.428;2023-04-03T13:34:37;21.23;;;20.00;;
3943;SDS011;1986;52.546;13.428;2023-04-03T13:37:21;21.33;;;20.03;;
3943;SDS011;1986;52.546;13.428;2023-04-03T13:39:58;21.17;;;19.97;;
3943;SDS011;1986;52.546;13.428;2023-04-03T13:42:28;20.67;;;19.47;;
3943;SDS011;1986;52.546;13.428;2023-04-03T13:48:06;21.33;;;20.03;;
3943;SDS011;1986;52.546;13.428;2023-04-03T13:50:51;22.20;;;20.80;;
3943;SDS011;1986;52.546;13.428;2023-04-03T13:53:22;20.80;;;19.60;;
3943;SDS011;1986;52.546;13.428;2023-04-03T13:56:00;21.70;;;20.50;;
3943;SDS011;1986;52.546;13.428;2023-04-03T13:58:33;22.40;;;21.10;;
3943;SDS011;1986;52.546;13.428;2023-04-03T14:01:06;22.50;;;21.10;;
3943;SDS011;1986;52.546;13.428;2023-04-03T14:03:53;22.30;;;21.00;;
3943;SDS011;1986;52.546;13.428;2023-04-03T14:06:25;22.67;;;21.37;;
3943;SDS011;1986;52.546;13.428;2023-04-03T14:08:52;24.37;;;22.97;;
3943;SDS011;1986;52.546;13.428;2023-04-03T14:11:29;21.30;;;20.10;;
3943;SDS011;1986;52.546;13.428;2023-04-03T14:13:57;21.60;;;20.30;;
3943;SDS011;1986;52.546;13.428;2023-04-03T14:16:31;21.50;;;20.20;;
3943;SDS011;1986;52.546;13.428;2023-04-03T14:19:03;21.53;;;20.20;;
3943;SDS011;1986;52.546;13.428;2023-04-03T14:21:35;23.00;;;21.60;;
3943;SDS011;1986;52.546;13.428;2023-04-03T14:24:02;22.10;;;20.80;;
3943;SDS011;1986;52.546;13.428;2023-04-03T14:26:33;22.30;;;21.00;;
3943;SDS011;1986;52.546;13.428;2023-04-03T14:29:01;22.20;;;20.90;;
3943;SDS011;1986;52.546;13.428;2023-04-03T14:31:29;22.90;;;21.40;;
3943;SDS011;1986;52.546;13.428;2023-04-03T14:33:57;23.67;;;22.27;;
3943;SDS011;1986;52.546;13.428;2023-04-03T14:36:24;23.03;;;21.73;;
3943;SDS011;1986;52.546;13.428;2023-04-03T14:38:56;22.97;;;21.67;;
3943;SDS011;1986;52.546;13.428;2023-04-03T14:41:27;22.10;;;20.80;;
3943;SDS011;1986;52.546;13.428;2023-04-03T14:43:57;22.50;;;21.20;;
3943;SDS011;1986;52.546;13.428;2023-04-03T14:46:41;21.80;;;20.60;;
3943;SDS011;1986;52.546;13.428;2023-04-03T14:49:10;21.10;;;20.00;;
3943;SDS011;1986;52.546;13.428;2023-04-03T14:51:40;22.50;;;21.20;;
3943;SDS011;1986;52.546;13.428;2023-04-03T14:54:12;21.90;;;20.80;;
3943;SDS011;1986;52.546;13.428;2023-04-03T14:56:40;22.50;;;21.13;;
3943;SDS011;1986;52.546;13.428;2023-04-03T14:59:09;21.73;;;20.53;;
3943;SDS011;1986;52.546;13.428;2023-04-03T15:01:39;20.60;;;19.50;;
3943;SDS011;1986;52.546;13.428;2023-04-03T15:04:09;21.33;;;20.03;;
3943;SDS011;1986;52.546;13.428;2023-04-03T15:06:38;20.80;;;19.60;;
3943;SDS011;1986;52.546;13.428;2023-04-03T15:09:09;20.40;;;19.20;;
3943;SDS011;1986;52.546;13.428;2023-04-03T15:11:44;20.70;;;19.50;;
3943;SDS011;1986;52.546;13.428;2023-04-03T15:14:12;20.57;;;19.37;;
3943;SDS011;1986;52.546;13.428;2023-04-03T15:16:41;21.87;;;20.60;;
3943;SDS011;1986;52.546;13.428;2023-04-03T15:19:08;20.50;;;19.30;;
3943;SDS011;1986;52.546;13.428;2023-04-03T15:21:36;20.70;;;19.50;;
3943;SDS011;1986;52.546;13.428;2023-04-03T15:24:03;21.20;;;20.00;;
3943;SDS011;1986;52.546;13.428;2023-04-03T15:26:32;21.27;;;20.07;;
3943;SDS011;1986;52.546;13.428;2023-04-03T15:29:01;21.63;;;20.23;;
3943;SDS011;1986;52.546;13.428;2023-04-03T15:31:29;20.97;;;19.77;;
3943;SDS011;1986;52.546;13.428;2023-04-03T15:33:56;20.60;;;19.50;;
3943;SDS011;1986;52.546;13.428;2023-04-03T15:36:26;20.30;;;19.20;;
3943;SDS011;1986;52.546;13.428;2023-04-03T15:38:54;20.50;;;19.30;;
3943;SDS011;1986;52.546;13.428;2023-04-03T15:41:21;20.50;;;19.40;;
3943;SDS011;1986;52.546;13.428;2023-04-03T15:43:58;20.40;;;19.20;;
3943;SDS011;1986;52.546;13.428;2023-04-03T15:46:26;21.00;;;19.80;;
3943;SDS011;1986;52.546;13.428;2023-04-03T15:48:54;21.47;;;20.03;;
3943;SDS011;1986;52.546;13.428;2023-04-03T15:51:21;20.20;;;19.10;;
3943;SDS011;1986;52.546;13.428;2023-04-03T15:53:48;21.27;;;19.97;;
3943;SDS011;1986;52.546;13.428;2023-04-03T15:56:16;20.73;;;19.53;;
3943;SDS011;1986;52.546;13.428;2023-04-03T15:58:43;20.50;;;19.30;;
3943;SDS011;1986;52.546;13.428;2023-04-03T16:01:11;20.10;;;19.00;;
3943;SDS011;1986;52.546;13.428;2023-04-03T16:03:39;20.53;;;19.10;;
3943;SDS011;1986;52.546;13.428;2023-04-03T16:06:18;19.40;;;18.40;;
3943;SDS011;1986;52.546;13.428;2023-04-03T16:08:50;19.63;;;18.53;;
3943;SDS011;1986;52.546;13.428;2023-04-03T16:11:24;19.87;;;18.77;;
3943;SDS011;1986;52.546;13.428;2023-04-03T16:13:57;20.40;;;19.20;;
3943;SDS011;1986;52.546;13.428;2023-04-03T16:16:28;20.03;;;18.93;;
3943;SDS011;1986;52.546;13.428;2023-04-03T16:18:58;20.57;;;19.17;;
3943;SDS011;1986;52.546;13.428;2023-04-03T16:21:26;20.30;;;19.20;;
3943;SDS011;1986;52.546;13.428;2023-04-03T16:23:54;20.70;;;19.50;;
3943;SDS011;1986;52.546;13.428;2023-04-03T16:26:23;20.20;;;19.10;;
3943;SDS011;1986;52.546;13.428;2023-04-03T16:28:50;20.63;;;19.43;;
3943;SDS011;1986;52.546;13.428;2023-04-03T16:31:19;20.50;;;19.40;;
3943;SDS011;1986;52.546;13.428;2023-04-03T16:33:48;20.97;;;19.77;;
3943;SDS011;1986;52.546;13.428;2023-04-03T16:36:16;21.50;;;20.30;;
3943;SDS011;1986;52.546;13.428;2023-04-03T16:38:43;21.83;;;20.53;;
3943;SDS011;1986;52.546;13.428;2023-04-03T16:41:10;22.47;;;21.07;;